createdAt,value
2017-11-29T08:07:03.454Z,5
2017-11-29T08:07:43.889Z,10
2017-11-29T08:08:24.383Z,15
2017-11-29T08:29:07.560Z,30
2017-11-29T08:29:48.077Z,30
2017-11-29T08:30:28.469Z,35
2017-11-29T08:31:08.968Z,35
2017-11-29T08:31:49.428Z,40
2017-11-29T08:32:29.918Z,45
2017-11-29T08:34:42.597Z,55
2017-11-29T08:35:23.026Z,55
2017-11-29T08:36:03.543Z,60
2017-11-29T08:36:44.011Z,55
2017-11-29T08:37:24.463Z,50
2017-11-29T08:38:04.937Z,40
2017-11-29T08:38:45.475Z,30
2017-11-29T08:39:26.076Z,35
2017-11-29T08:40:06.534Z,40
2017-11-29T08:40:47.177Z,50
2017-11-29T08:41:27.724Z,60
2017-11-29T08:42:08.247Z,60
2017-11-29T08:42:48.747Z,60
2017-11-29T08:43:29.200Z,55
2017-11-29T08:44:09.689Z,60
2017-11-29T08:44:50.133Z,65
2017-11-29T08:47:18.067Z,75
2017-11-29T08:47:58.545Z,80
2017-11-29T08:48:39.050Z,75
2017-11-29T08:49:19.534Z,80
2017-11-29T08:49:59.997Z,80
2017-11-29T08:50:40.525Z,85
2017-11-29T08:51:20.997Z,90
2017-11-29T08:52:01.443Z,100
2017-11-29T08:52:41.916Z,120
2017-11-29T08:53:22.447Z,140
2017-11-29T08:54:02.871Z,155
2017-11-29T08:54:43.391Z,165
2017-11-29T08:55:27.735Z,0
2017-11-29T08:56:19.070Z,0
2017-11-29T08:57:14.478Z,0
2017-11-29T08:59:02.722Z,0
2017-11-29T08:59:43.210Z,140
2017-11-29T09:00:23.763Z,135
2017-11-29T09:01:04.280Z,130
2017-11-29T09:03:32.207Z,115
2017-11-29T09:04:12.762Z,115
2017-11-29T09:04:53.256Z,115
2017-11-29T09:05:51.837Z,0
2017-11-29T09:06:32.329Z,125
2017-11-29T09:07:12.837Z,110
2017-11-29T09:07:53.331Z,110
2017-11-29T09:08:33.868Z,120
2017-11-29T09:09:14.997Z,135
2017-11-29T09:09:56.418Z,145
2017-11-29T09:10:37.085Z,160
2017-11-29T09:11:17.625Z,180
2017-11-29T09:11:58.124Z,190
2017-11-29T09:12:38.565Z,200
2017-11-29T09:15:06.692Z,215
2017-11-29T09:15:47.195Z,210
2017-11-29T09:16:27.699Z,195
2017-11-29T09:17:08.198Z,190
2017-11-29T09:17:48.685Z,180
2017-11-29T09:20:01.386Z,150
2017-11-29T09:20:41.876Z,140
2017-11-29T09:21:22.553Z,135
2017-11-29T09:22:03.292Z,130
2017-11-29T09:22:44.035Z,130
2017-11-29T09:23:24.874Z,135
2017-11-29T09:24:05.602Z,150
2017-11-29T09:24:46.672Z,180
2017-11-29T09:25:27.430Z,195
2017-11-29T09:26:08.045Z,195
2017-11-29T09:26:48.852Z,190
2017-11-29T09:27:29.543Z,180
2017-11-29T09:28:10.657Z,175
2017-11-29T09:28:51.388Z,175
2017-11-29T09:29:32.075Z,185
2017-11-29T09:30:13.901Z,195
2017-11-29T09:30:56.305Z,205
2017-11-29T09:31:37.392Z,210
2017-11-29T09:32:18.072Z,215
2017-11-29T09:32:59.140Z,210
2017-11-29T09:33:40.173Z,205
2017-11-29T09:34:21.015Z,200
2017-11-29T09:35:02.540Z,195
2017-11-29T09:35:43.322Z,185
2017-11-29T09:36:24.212Z,180
2017-11-29T09:37:04.991Z,165
2017-11-29T09:37:45.760Z,150
2017-11-29T09:38:26.682Z,145
2017-11-29T09:39:07.556Z,155
2017-11-29T09:39:48.483Z,165
2017-11-29T09:40:29.188Z,190
2017-11-29T09:41:10.828Z,215
2017-11-29T09:41:51.776Z,220
2017-11-29T09:42:32.574Z,220
2017-11-29T09:43:13.334Z,225
2017-11-29T09:43:54.158Z,235
2017-11-29T09:44:34.987Z,245
2017-11-29T09:45:15.854Z,240
2017-11-29T09:45:56.760Z,230
2017-11-29T09:46:37.591Z,225
2017-11-29T09:47:18.337Z,215
2017-11-29T09:47:59.007Z,220
2017-11-29T09:48:39.917Z,220
2017-11-29T09:49:20.757Z,220
2017-11-29T09:50:01.596Z,220
2017-11-29T09:50:42.482Z,230
2017-11-29T09:51:23.331Z,235
2017-11-29T09:52:04.002Z,235
2017-11-29T09:52:44.758Z,230
2017-11-29T09:53:25.654Z,220
2017-11-29T09:54:06.479Z,225
2017-11-29T09:54:47.283Z,215
2017-11-29T09:55:27.980Z,220
2017-11-29T09:56:08.832Z,220
2017-11-29T09:56:49.604Z,225
2017-11-29T09:57:30.415Z,225
2017-11-29T09:58:11.329Z,235
2017-11-29T09:58:52.108Z,245
2017-11-29T09:59:32.909Z,245
2017-11-29T10:00:13.794Z,245
2017-11-29T10:00:54.495Z,245
2017-11-29T10:01:36.081Z,245
2017-11-29T10:02:16.940Z,240
2017-11-29T10:02:57.756Z,225
2017-11-29T10:03:38.645Z,205
2017-11-29T10:04:19.399Z,190
2017-11-29T10:05:01.999Z,170
2017-11-29T10:05:43.390Z,155
2017-11-29T10:06:24.965Z,145
2017-11-29T10:07:05.885Z,130
2017-11-29T10:07:46.702Z,120
2017-11-29T10:08:27.751Z,120
2017-11-29T10:09:08.621Z,120
2017-11-29T10:09:49.431Z,120
2017-11-29T10:10:30.378Z,125
2017-11-29T10:11:11.157Z,125
2017-11-29T10:11:54.141Z,125
2017-11-29T10:12:35.123Z,125
2017-11-29T10:13:16.144Z,135
2017-11-29T10:13:56.993Z,155
2017-11-29T10:14:37.808Z,165
2017-11-29T10:15:18.542Z,165
2017-11-29T10:15:59.471Z,160
2017-11-29T10:16:40.268Z,170
2017-11-29T10:17:21.088Z,170
2017-11-29T10:18:01.903Z,160
2017-11-29T10:18:42.792Z,150
2017-11-29T10:19:23.780Z,145
2017-11-29T10:20:04.656Z,145
2017-11-29T10:20:46.018Z,160
2017-11-29T10:21:27.007Z,165
2017-11-29T10:22:07.887Z,180
2017-11-29T10:22:48.727Z,200
2017-11-29T10:23:30.227Z,215
2017-11-29T10:24:11.546Z,220
2017-11-29T10:24:53.614Z,205
2017-11-29T10:25:36.622Z,185
2017-11-29T10:26:17.400Z,180
2017-11-29T10:26:58.234Z,185
2017-11-29T10:27:39.695Z,190
2017-11-29T10:28:20.572Z,220
2017-11-29T10:29:01.408Z,220
2017-11-29T10:29:42.358Z,225
2017-11-29T10:30:24.207Z,235
2017-11-29T10:31:05.174Z,225
2017-11-29T10:31:46.771Z,235
2017-11-29T10:32:27.584Z,245
2017-11-29T10:33:08.531Z,240
2017-11-29T10:33:50.104Z,220
2017-11-29T10:34:30.922Z,195
2017-11-29T10:35:11.851Z,175
2017-11-29T10:35:52.655Z,160
2017-11-29T10:36:34.468Z,155
2017-11-29T10:37:15.235Z,155
2017-11-29T10:37:56.898Z,150
2017-11-29T10:38:37.743Z,150
2017-11-29T10:39:18.596Z,155
2017-11-29T10:39:59.390Z,165
2017-11-29T10:40:40.115Z,175
2017-11-29T10:41:20.886Z,185
2017-11-29T10:42:01.840Z,205
2017-11-29T10:42:42.635Z,220
2017-11-29T10:43:23.489Z,235
2017-11-29T10:44:04.269Z,245
2017-11-29T10:44:45.050Z,245
2017-11-29T10:45:25.923Z,245
2017-11-29T10:46:07.335Z,255
2017-11-29T10:46:48.194Z,260
2017-11-29T10:47:30.014Z,250
2017-11-29T10:48:10.999Z,255
2017-11-29T10:48:51.708Z,260
2017-11-29T10:49:32.611Z,270
2017-11-29T10:50:29.485Z,265
2017-11-29T10:51:14.586Z,290
2017-11-29T10:51:56.643Z,315
2017-11-29T10:52:37.615Z,315
2017-11-29T10:53:19.821Z,320
2017-11-29T10:54:00.795Z,325
2017-11-29T10:54:41.646Z,330
2017-11-29T10:55:22.462Z,335
2017-11-29T10:56:03.322Z,335
2017-11-29T10:56:44.272Z,335
2017-11-29T10:57:25.080Z,330
2017-11-29T10:58:05.972Z,345
2017-11-29T10:58:46.951Z,350
2017-11-29T10:59:29.322Z,335
2017-11-29T11:00:10.119Z,325
2017-11-29T11:00:51.719Z,310
2017-11-29T11:01:32.540Z,310
2017-11-29T11:02:13.801Z,300
2017-11-29T11:02:54.785Z,295
2017-11-29T11:03:35.750Z,290
2017-11-29T11:04:17.581Z,290
2017-11-29T11:04:58.545Z,295
2017-11-29T11:05:39.382Z,290
2017-11-29T11:06:20.271Z,300
2017-11-29T11:07:01.268Z,300
2017-11-29T11:07:42.147Z,300
2017-11-29T11:08:22.973Z,295
2017-11-29T11:09:04.806Z,275
2017-11-29T11:09:44.927Z,270
2017-11-29T11:10:25.782Z,260
2017-11-29T11:11:06.692Z,250
2017-11-29T11:11:47.488Z,240
2017-11-29T11:12:28.497Z,230
2017-11-29T11:13:09.888Z,225
2017-11-29T11:13:52.587Z,230
2017-11-29T11:14:33.472Z,235
2017-11-29T11:15:14.997Z,245
2017-11-29T11:15:55.914Z,245
2017-11-29T11:16:37.549Z,230
2017-11-29T11:17:18.541Z,230
2017-11-29T11:17:59.694Z,225
2017-11-29T11:18:40.785Z,215
2017-11-29T11:19:21.746Z,215
2017-11-29T11:20:02.586Z,225
2017-11-29T11:20:43.969Z,230
2017-11-29T11:21:24.585Z,240
2017-11-29T11:22:05.650Z,250
2017-11-29T11:22:47.458Z,250
2017-11-29T11:23:28.656Z,245
2017-11-29T11:24:09.330Z,235
2017-11-29T11:24:51.198Z,225
2017-11-29T11:25:32.009Z,225
2017-11-29T11:26:12.709Z,225
2017-11-29T11:26:53.632Z,230
2017-11-29T11:27:34.514Z,235
2017-11-29T11:28:15.423Z,235
2017-11-29T11:28:56.267Z,230
2017-11-29T11:29:37.132Z,225
2017-11-29T11:30:17.971Z,230
2017-11-29T11:30:58.834Z,235
2017-11-29T11:31:39.585Z,240
2017-11-29T11:32:20.439Z,250
2017-11-29T11:33:01.510Z,255
2017-11-29T11:33:42.423Z,275
2017-11-29T11:34:25.304Z,290
2017-11-29T11:35:09.913Z,295
2017-11-29T11:36:05.448Z,310
2017-11-29T11:38:18.145Z,300
2017-11-29T11:38:58.897Z,300
2017-11-29T11:39:39.820Z,300
2017-11-29T11:40:20.607Z,300
2017-11-29T11:41:01.401Z,305
2017-11-29T11:41:42.338Z,310
2017-11-29T11:42:23.189Z,310
2017-11-29T11:43:04.897Z,315
2017-11-29T11:43:46.470Z,325
2017-11-29T11:44:27.212Z,315
2017-11-29T11:45:08.040Z,335
2017-11-29T11:45:48.859Z,325
2017-11-29T11:46:29.741Z,330
2017-11-29T11:47:10.598Z,335
2017-11-29T11:47:51.435Z,320
2017-11-29T11:48:32.339Z,315
2017-11-29T11:49:14.042Z,310
2017-11-29T11:49:55.201Z,300
2017-11-29T11:50:36.199Z,295
2017-11-29T11:51:17.188Z,275
2017-11-29T11:51:58.885Z,275
2017-11-29T11:52:39.964Z,265
2017-11-29T11:53:20.929Z,265
2017-11-29T11:54:02.726Z,260
2017-11-29T11:54:43.964Z,250
2017-11-29T11:55:24.770Z,245
2017-11-29T11:56:05.678Z,245
2017-11-29T11:56:46.357Z,245
2017-11-29T11:57:27.274Z,245
2017-11-29T11:58:08.173Z,245
2017-11-29T11:58:50.841Z,240
2017-11-29T11:59:32.356Z,240
2017-11-29T12:00:14.127Z,235
2017-11-29T12:00:55.972Z,235
2017-11-29T12:01:38.092Z,230
2017-11-29T12:02:19.136Z,225
2017-11-29T12:03:00.847Z,225
2017-11-29T12:03:43.219Z,220
2017-11-29T12:04:24.340Z,220
2017-11-29T12:05:05.535Z,220
2017-11-29T12:05:46.587Z,220
2017-11-29T12:06:28.786Z,220
2017-11-29T12:07:09.994Z,225
2017-11-29T12:07:52.091Z,230
2017-11-29T12:08:34.798Z,235
2017-11-29T12:09:16.235Z,240
2017-11-29T12:09:57.444Z,235
2017-11-29T12:10:39.405Z,235
2017-11-29T12:11:20.604Z,230
2017-11-29T12:12:02.029Z,235
2017-11-29T12:12:43.063Z,250
2017-11-29T12:13:24.274Z,240
2017-11-29T12:14:05.214Z,250
2017-11-29T12:14:45.994Z,260
2017-11-29T12:15:27.130Z,260
2017-11-29T12:16:08.319Z,255
2017-11-29T12:16:49.184Z,255
2017-11-29T12:17:31.198Z,250
2017-11-29T12:18:12.039Z,245
2017-11-29T12:18:52.769Z,235
2017-11-29T12:19:33.629Z,250
2017-11-29T12:20:14.440Z,245
2017-11-29T12:20:55.322Z,245
2017-11-29T12:21:36.902Z,250
2017-11-29T12:22:17.675Z,255
2017-11-29T12:22:58.526Z,250
2017-11-29T12:23:39.396Z,230
2017-11-29T12:24:20.178Z,260
2017-11-29T12:25:00.900Z,260
2017-11-29T12:25:41.759Z,260
2017-11-29T12:26:22.538Z,265
2017-11-29T12:27:03.402Z,265
2017-11-29T12:27:44.140Z,265
2017-11-29T12:28:25.077Z,260
2017-11-29T12:29:05.930Z,255
2017-11-29T12:29:46.696Z,245
2017-11-29T12:30:27.487Z,245
2017-11-29T12:31:08.373Z,240
2017-11-29T12:31:49.311Z,230
2017-11-29T12:32:30.167Z,230
2017-11-29T12:33:10.998Z,220
2017-11-29T12:33:51.856Z,205
2017-11-29T12:34:32.684Z,190
2017-11-29T12:35:13.450Z,180
2017-11-29T12:35:54.324Z,175
2017-11-29T12:36:35.144Z,185
2017-11-29T12:37:16.860Z,210
2017-11-29T12:37:57.732Z,225
2017-11-29T12:38:38.542Z,235
2017-11-29T12:39:19.485Z,240
2017-11-29T12:40:00.313Z,240
2017-11-29T12:40:41.162Z,230
2017-11-29T12:41:21.876Z,215
2017-11-29T12:42:02.861Z,225
2017-11-29T12:42:43.637Z,220
2017-11-29T12:43:24.522Z,210
2017-11-29T12:44:05.452Z,210
2017-11-29T12:44:46.197Z,200
2017-11-29T12:45:26.988Z,190
2017-11-29T12:46:08.715Z,190
2017-11-29T12:46:49.591Z,190
2017-11-29T12:47:30.397Z,195
2017-11-29T12:48:11.369Z,200
2017-11-29T12:48:53.208Z,205
2017-11-29T12:49:34.544Z,210
2017-11-29T12:50:15.360Z,210
2017-11-29T12:50:57.886Z,215
2017-11-29T12:51:38.774Z,215
2017-11-29T12:52:19.538Z,210
2017-11-29T12:53:00.438Z,205
2017-11-29T12:53:42.018Z,205
2017-11-29T12:54:22.730Z,205
2017-11-29T12:55:03.514Z,205
2017-11-29T12:55:46.376Z,205
2017-11-29T12:56:27.178Z,210
2017-11-29T12:57:08.827Z,215
2017-11-29T12:57:49.784Z,210
2017-11-29T12:58:31.177Z,200
2017-11-29T12:59:11.989Z,200
2017-11-29T12:59:53.336Z,200
2017-11-29T13:00:34.086Z,200
2017-11-29T13:01:15.080Z,200
2017-11-29T13:01:55.925Z,205
2017-11-29T13:02:37.668Z,210
2017-11-29T13:03:18.433Z,210
2017-11-29T13:04:00.148Z,215
2017-11-29T13:04:40.928Z,215
2017-11-29T13:05:21.814Z,210
2017-11-29T13:06:02.564Z,210
2017-11-29T13:06:45.021Z,205
2017-11-29T13:07:25.779Z,200
2017-11-29T13:08:06.652Z,200
2017-11-29T13:08:47.522Z,200
2017-11-29T13:09:28.325Z,195
2017-11-29T13:10:09.055Z,195
2017-11-29T13:10:49.946Z,190
2017-11-29T13:11:30.696Z,190
2017-11-29T13:12:11.511Z,185
2017-11-29T13:12:52.429Z,185
2017-11-29T13:13:33.355Z,185
2017-11-29T13:14:14.175Z,180
2017-11-29T13:14:55.689Z,180
2017-11-29T13:15:36.692Z,175
2017-11-29T13:16:17.433Z,175
2017-11-29T13:16:58.243Z,175
2017-11-29T13:17:39.002Z,170
2017-11-29T13:18:19.889Z,160
2017-11-29T13:19:00.750Z,160
2017-11-29T13:19:41.497Z,155
2017-11-29T13:20:22.249Z,155
2017-11-29T13:21:03.109Z,155
2017-11-29T13:21:43.987Z,155
2017-11-29T13:22:24.837Z,155
2017-11-29T13:23:05.563Z,155
2017-11-29T13:23:46.363Z,150
2017-11-29T13:24:27.293Z,150
2017-11-29T13:25:08.092Z,145
2017-11-29T13:25:49.173Z,145
2017-11-29T13:26:30.026Z,145
2017-11-29T13:27:11.807Z,140
2017-11-29T13:27:52.533Z,140
2017-11-29T13:28:33.455Z,135
2017-11-29T13:29:14.418Z,125
2017-11-29T13:29:55.290Z,115
2017-11-29T13:30:36.118Z,110
2017-11-29T13:31:16.911Z,105
2017-11-29T13:31:57.949Z,105
2017-11-29T13:32:40.665Z,100
2017-11-29T13:33:21.990Z,95
2017-11-29T13:34:02.948Z,95
2017-11-29T13:34:43.719Z,90
2017-11-29T13:35:24.656Z,90
2017-11-29T13:36:05.536Z,85
2017-11-29T13:36:46.290Z,85
2017-11-29T13:37:27.186Z,80
2017-11-29T13:38:08.030Z,75
2017-11-29T13:38:48.951Z,75
2017-11-29T13:39:30.665Z,80
2017-11-29T13:40:11.557Z,80
2017-11-29T13:40:52.435Z,85
2017-11-29T13:41:33.304Z,85
2017-11-29T13:42:14.088Z,85
2017-11-29T13:42:54.805Z,85
2017-11-29T13:43:36.712Z,85
2017-11-29T13:44:17.531Z,85
2017-11-29T13:44:58.329Z,85
2017-11-29T13:45:39.156Z,85
2017-11-29T13:46:20.413Z,85
2017-11-29T13:47:01.253Z,80
2017-11-29T13:47:42.083Z,80
2017-11-29T13:48:22.876Z,75
2017-11-29T13:49:03.696Z,70
2017-11-29T13:49:44.655Z,70
2017-11-29T13:50:25.340Z,65
2017-11-29T13:51:06.226Z,65
2017-11-29T13:51:47.043Z,65
2017-11-29T13:52:28.708Z,65
2017-11-29T13:53:09.756Z,60
2017-11-29T13:53:50.472Z,60
2017-11-29T13:54:31.353Z,60
2017-11-29T13:55:12.139Z,65
2017-11-29T13:55:52.885Z,65
2017-11-29T13:56:33.809Z,65
2017-11-29T13:57:14.684Z,65
2017-11-29T13:57:55.756Z,65
2017-11-29T13:58:37.587Z,65
2017-11-29T13:59:18.440Z,65
2017-11-29T13:59:59.354Z,60
2017-11-29T14:00:40.313Z,55
2017-11-29T14:01:21.097Z,55
2017-11-29T14:02:01.890Z,50
2017-11-29T14:02:44.457Z,50
2017-11-29T14:03:25.359Z,45
2017-11-29T14:04:06.192Z,45
2017-11-29T14:04:47.067Z,45
2017-11-29T14:05:27.887Z,50
2017-11-29T14:06:08.803Z,50
2017-11-29T14:06:49.866Z,50
2017-11-29T14:07:30.899Z,50
2017-11-29T14:08:11.600Z,55
2017-11-29T14:08:52.394Z,55
2017-11-29T14:09:33.238Z,55
2017-11-29T14:10:13.846Z,55
2017-11-29T14:10:54.480Z,55
2017-11-29T14:11:35.245Z,60
2017-11-29T14:12:16.181Z,60
2017-11-29T14:12:56.993Z,65
2017-11-29T14:13:37.836Z,65
2017-11-29T14:14:18.716Z,70
2017-11-29T14:14:59.600Z,75
2017-11-29T14:15:40.589Z,80
2017-11-29T14:16:21.524Z,80
2017-11-29T14:17:02.454Z,85
2017-11-29T14:17:44.552Z,85
2017-11-29T14:18:25.481Z,85
2017-11-29T14:19:06.559Z,80
2017-11-29T14:19:47.498Z,80
2017-11-29T14:20:28.193Z,75
2017-11-29T14:21:09.363Z,75
2017-11-29T14:21:50.374Z,70
2017-11-29T14:22:31.265Z,70
2017-11-29T14:23:12.111Z,70
2017-11-29T14:23:52.893Z,65
2017-11-29T14:24:33.769Z,65
2017-11-29T14:25:14.658Z,60
2017-11-29T14:25:55.545Z,60
2017-11-29T14:26:36.488Z,60
2017-11-29T14:27:17.390Z,60
2017-11-29T14:27:59.011Z,60
2017-11-29T14:28:39.753Z,60
2017-11-29T14:29:20.976Z,60
2017-11-29T14:30:01.986Z,60
2017-11-29T14:30:42.951Z,55
2017-11-29T14:31:23.871Z,55
2017-11-29T14:32:04.740Z,50
2017-11-29T14:32:45.606Z,45
2017-11-29T14:33:26.402Z,40
2017-11-29T14:34:07.847Z,40
2017-11-29T14:34:49.180Z,40
2017-11-29T14:35:30.115Z,40
2017-11-29T14:36:11.212Z,45
2017-11-29T14:36:52.038Z,45
2017-11-29T14:37:33.418Z,50
2017-11-29T14:38:14.252Z,50
2017-11-29T14:38:55.093Z,55
2017-11-29T14:39:35.964Z,55
2017-11-29T14:40:16.817Z,55
2017-11-29T14:40:57.714Z,55
2017-11-29T14:41:38.503Z,55
2017-11-29T14:42:19.343Z,50
2017-11-29T14:43:00.667Z,55
2017-11-29T14:43:41.521Z,55
2017-11-29T14:44:22.450Z,55
2017-11-29T14:45:03.427Z,55
2017-11-29T14:45:44.290Z,50
2017-11-29T14:46:25.110Z,50
2017-11-29T14:47:06.128Z,45
2017-11-29T14:47:47.604Z,45
2017-11-29T14:48:28.018Z,45
2017-11-29T14:49:12.820Z,40
2017-11-29T14:49:55.348Z,40
2017-11-29T14:50:36.410Z,40
2017-11-29T14:51:17.215Z,35
2017-11-29T14:52:00.189Z,30
2017-11-29T14:52:41.044Z,30
2017-11-29T14:53:21.852Z,25
2017-11-29T14:54:03.513Z,25
2017-11-29T14:54:45.017Z,25
2017-11-29T14:55:26.847Z,20
2017-11-29T14:56:08.553Z,25
2017-11-29T14:56:50.398Z,25
2017-11-29T14:57:31.316Z,25
2017-11-29T14:58:13.798Z,25
2017-11-29T14:58:55.302Z,25
2017-11-29T14:59:36.152Z,25
2017-11-29T15:00:17.031Z,25
2017-11-29T15:00:57.963Z,25
2017-11-29T15:01:39.752Z,25
2017-11-29T15:02:21.643Z,20
2017-11-29T15:03:03.375Z,20
2017-11-29T15:03:44.473Z,20
2017-11-29T15:04:25.309Z,20
2017-11-29T15:05:06.174Z,20
2017-11-29T15:05:47.519Z,20
2017-11-29T15:06:29.205Z,15
2017-11-29T15:07:10.096Z,15
2017-11-29T15:07:50.981Z,15
2017-11-29T15:08:31.858Z,15
2017-11-29T15:09:12.654Z,10
2017-11-29T15:09:54.063Z,10
2017-11-29T15:10:35.079Z,10
2017-11-29T15:11:15.879Z,10
2017-11-29T15:11:56.667Z,10
2017-11-29T15:12:37.494Z,10
2017-11-29T15:13:18.408Z,10
2017-11-29T15:13:59.743Z,10
2017-11-29T15:14:40.804Z,10
2017-11-29T15:15:21.621Z,10
2017-11-29T15:16:03.325Z,10
2017-11-29T15:16:44.008Z,10
2017-11-29T15:17:25.703Z,10
2017-11-29T15:18:06.511Z,10
2017-11-29T15:18:47.477Z,10
2017-11-29T15:19:28.394Z,10
2017-11-29T15:20:10.215Z,10
2017-11-29T15:20:51.038Z,10
2017-11-29T15:21:31.830Z,10
2017-11-29T15:22:12.852Z,10
2017-11-29T15:22:53.697Z,10
2017-11-29T15:23:34.737Z,10
2017-11-29T15:24:15.732Z,10
2017-11-29T15:24:56.605Z,10
2017-11-29T15:25:37.470Z,5
2017-11-29T15:26:18.312Z,5
2017-11-29T15:26:59.135Z,5
2017-11-29T15:27:40.009Z,5
2017-11-29T15:28:20.936Z,5
2017-11-29T15:29:02.381Z,0
2017-11-29T15:29:43.229Z,0
2017-11-29T15:30:24.115Z,0
2017-11-29T15:31:04.935Z,0
2017-11-29T15:31:45.853Z,0
2017-11-29T15:32:26.701Z,0
2017-11-29T15:33:07.566Z,0
2017-11-29T15:33:49.078Z,0
2017-11-29T15:34:29.376Z,0
2017-11-29T15:35:10.187Z,0
2017-11-29T15:35:51.088Z,0
2017-11-29T15:36:31.975Z,0
2017-11-29T15:37:12.882Z,0
2017-11-29T15:37:53.766Z,0
2017-11-29T15:38:34.610Z,0
2017-11-29T15:39:15.583Z,0
2017-11-29T15:39:56.370Z,0
2017-11-29T15:40:37.437Z,0
2017-11-29T15:41:18.350Z,0
2017-11-29T15:41:59.151Z,0
2017-11-29T15:42:39.992Z,0
2017-11-29T15:43:21.192Z,0
2017-11-29T15:44:03.092Z,0
2017-11-29T15:44:44.146Z,0
2017-11-29T15:45:25.059Z,0
2017-11-29T15:46:05.986Z,0
2017-11-29T15:46:46.883Z,0
2017-11-29T15:47:27.940Z,0
2017-11-29T15:48:08.852Z,0
2017-11-29T15:48:49.693Z,0
2017-11-29T15:49:30.675Z,0
2017-11-29T15:50:11.514Z,0
2017-11-29T15:50:52.336Z,0
2017-11-29T15:51:33.436Z,0
2017-11-29T15:52:14.263Z,0
2017-11-29T15:52:55.142Z,0
2017-11-29T15:53:35.942Z,0
2017-11-29T15:54:16.825Z,0
2017-11-29T15:54:57.700Z,0
2017-11-29T15:55:38.653Z,0
2017-11-29T15:56:19.536Z,0
2017-11-29T15:57:00.482Z,0
2017-11-29T15:57:42.110Z,0
2017-11-29T15:58:22.310Z,0
2017-11-29T15:59:03.927Z,0
2017-11-29T15:59:44.758Z,0
2017-11-29T16:00:25.669Z,0
2017-11-29T16:01:06.565Z,0
2017-11-29T16:01:47.615Z,0
2017-11-29T16:02:28.460Z,0
2017-11-29T16:03:09.487Z,0
2017-11-29T16:03:51.082Z,0
2017-11-29T16:04:31.326Z,0
2017-11-29T16:05:12.209Z,0
2017-11-29T16:05:53.076Z,0
